sensor_id;sensor_type;location;lat;lon;timestamp;P1;durP1;ratioP1;P2;durP2;ratioP2
36185;SDS011;22228;53.222;7.446;2023-03-01T00:02:35;29.23;;;22.33;;
36185;SDS011;22228;53.222;7.446;2023-03-01T00:05:01;33.63;;;22.60;;
36185;SDS011;22228;53.222;7.446;2023-03-01T00:07:21;28.27;;;21.43;;
36185;SDS011;22228;53.222;7.446;2023-03-01T00:10:07;30.27;;;23.33;;
36185;SDS011;22228;53.222;7.446;2023-03-01T00:12:32;30.53;;;24.00;;
36185;SDS011;22228;53.222;7.446;2023-03-01T00:14:55;33.10;;;24.17;;
36185;SDS011;22228;53.222;7.446;2023-03-01T00:17:16;32.00;;;24.50;;
36185;SDS011;22228;53.222;7.446;2023-03-01T00:20:04;32.87;;;25.27;;
36185;SDS011;22228;53.222;7.446;2023-03-01T00:22:52;31.10;;;23.67;;
36185;SDS011;22228;53.222;7.446;2023-03-01T00:25:12;30.03;;;23.70;;
36185;SDS011;22228;53.222;7.446;2023-03-01T00:27:34;31.97;;;24.70;;
36185;SDS011;22228;53.222;7.446;2023-03-01T00:29:55;32.90;;;24.23;;
36185;SDS011;22228;53.222;7.446;2023-03-01T00:32:41;32.77;;;23.73;;
36185;SDS011;22228;53.222;7.446;2023-03-01T00:35:04;32.03;;;24.33;;
36185;SDS011;22228;53.222;7.446;2023-03-01T00:37:32;38.27;;;24.73;;
36185;SDS011;22228;53.222;7.446;2023-03-01T00:39:53;31.43;;;23.30;;
36185;SDS011;22228;53.222;7.446;2023-03-01T00:42:14;37.63;;;24.70;;
36185;SDS011;22228;53.222;7.446;2023-03-01T00:44:41;39.90;;;26.20;;
36185;SDS011;22228;53.222;7.446;2023-03-01T00:47:02;32.43;;;23.97;;
36185;SDS011;22228;53.222;7.446;2023-03-01T00:49:26;34.83;;;23.50;;
36185;SDS011;22228;53.222;7.446;2023-03-01T00:52:19;38.07;;;26.80;;
36185;SDS011;22228;53.222;7.446;2023-03-01T00:54:40;37.43;;;27.13;;
36185;SDS011;22228;53.222;7.446;2023-03-01T00:57:01;39.00;;;27.87;;
36185;SDS011;22228;53.222;7.446;2023-03-01T00:59:22;36.70;;;26.07;;
36185;SDS011;22228;53.222;7.446;2023-03-01T01:01:44;36.47;;;25.70;;
36185;SDS011;22228;53.222;7.446;2023-03-01T01:04:06;41.50;;;28.37;;
36185;SDS011;22228;53.222;7.446;2023-03-01T01:06:52;36.73;;;26.57;;
36185;SDS011;22228;53.222;7.446;2023-03-01T01:09:44;35.83;;;26.83;;
36185;SDS011;22228;53.222;7.446;2023-03-01T01:12:31;35.73;;;24.93;;
36185;SDS011;22228;53.222;7.446;2023-03-01T01:14:52;36.50;;;26.57;;
36185;SDS011;22228;53.222;7.446;2023-03-01T04:03:27;37.13;;;27.77;;
36185;SDS011;22228;53.222;7.446;2023-03-01T04:06:13;38.53;;;27.17;;
36185;SDS011;22228;53.222;7.446;2023-03-01T04:08:34;38.33;;;28.40;;
36185;SDS011;22228;53.222;7.446;2023-03-01T04:10:57;36.63;;;27.20;;
36185;SDS011;22228;53.222;7.446;2023-03-01T04:13:40;33.67;;;26.77;;
36185;SDS011;22228;53.222;7.446;2023-03-01T04:16:01;36.23;;;27.90;;
36185;SDS011;22228;53.222;7.446;2023-03-01T04:18:23;41.60;;;28.70;;
36185;SDS011;22228;53.222;7.446;2023-03-01T04:20:51;40.77;;;27.90;;
36185;SDS011;22228;53.222;7.446;2023-03-01T04:23:16;37.43;;;27.10;;
36185;SDS011;22228;53.222;7.446;2023-03-01T04:25:39;40.03;;;28.53;;
36185;SDS011;22228;53.222;7.446;2023-03-01T04:28:02;38.67;;;28.27;;
36185;SDS011;22228;53.222;7.446;2023-03-01T04:33:44;39.23;;;28.57;;
36185;SDS011;22228;53.222;7.446;2023-03-01T04:36:12;37.47;;;28.53;;
36185;SDS011;22228;53.222;7.446;2023-03-01T04:38:34;36.43;;;28.07;;
36185;SDS011;22228;53.222;7.446;2023-03-01T04:43:49;41.73;;;29.47;;
36185;SDS011;22228;53.222;7.446;2023-03-01T04:46:15;42.53;;;30.50;;
36185;SDS011;22228;53.222;7.446;2023-03-01T04:48:37;47.37;;;31.43;;
36185;SDS011;22228;53.222;7.446;2023-03-01T04:51:04;63.03;;;36.07;;
36185;SDS011;22228;53.222;7.446;2023-03-01T04:53:51;57.47;;;34.07;;
36185;SDS011;22228;53.222;7.446;2023-03-01T04:56:15;78.87;;;41.43;;
36185;SDS011;22228;53.222;7.446;2023-03-01T04:58:37;74.50;;;41.20;;
36185;SDS011;22228;53.222;7.446;2023-03-01T05:01:22;80.87;;;41.50;;
36185;SDS011;22228;53.222;7.446;2023-03-01T05:03:46;76.70;;;40.53;;
36185;SDS011;22228;53.222;7.446;2023-03-01T05:06:13;87.67;;;45.93;;
36185;SDS011;22228;53.222;7.446;2023-03-01T05:11:44;81.70;;;41.50;;
36185;SDS011;22228;53.222;7.446;2023-03-01T05:14:30;65.93;;;38.53;;
36185;SDS011;22228;53.222;7.446;2023-03-01T05:16:51;78.33;;;41.37;;
36185;SDS011;22228;53.222;7.446;2023-03-01T05:19:13;74.50;;;42.70;;
36185;SDS011;22228;53.222;7.446;2023-03-01T05:21:36;76.37;;;41.73;;
36185;SDS011;22228;53.222;7.446;2023-03-01T05:24:18;77.37;;;41.93;;
36185;SDS011;22228;53.222;7.446;2023-03-01T05:26:40;73.70;;;38.90;;
36185;SDS011;22228;53.222;7.446;2023-03-01T05:29:01;75.83;;;41.73;;
36185;SDS011;22228;53.222;7.446;2023-03-01T05:31:23;77.23;;;41.57;;
36185;SDS011;22228;53.222;7.446;2023-03-01T05:33:44;78.90;;;43.30;;
36185;SDS011;22228;53.222;7.446;2023-03-01T05:36:29;68.93;;;40.33;;
36185;SDS011;22228;53.222;7.446;2023-03-01T05:39:15;70.83;;;40.33;;
36185;SDS011;22228;53.222;7.446;2023-03-01T05:41:37;69.63;;;39.13;;
36185;SDS011;22228;53.222;7.446;2023-03-01T05:43:58;72.50;;;41.40;;
36185;SDS011;22228;53.222;7.446;2023-03-01T05:46:44;74.43;;;39.20;;
36185;SDS011;22228;53.222;7.446;2023-03-01T05:49:05;85.10;;;43.67;;
36185;SDS011;22228;53.222;7.446;2023-03-01T05:51:52;73.63;;;39.73;;
36185;SDS011;22228;53.222;7.446;2023-03-01T05:54:16;76.83;;;42.00;;
36185;SDS011;22228;53.222;7.446;2023-03-01T05:56:37;69.47;;;41.17;;
36185;SDS011;22228;53.222;7.446;2023-03-01T05:59:05;74.47;;;42.17;;
36185;SDS011;22228;53.222;7.446;2023-03-01T06:01:26;69.97;;;42.07;;
36185;SDS011;22228;53.222;7.446;2023-03-01T06:03:48;68.80;;;40.63;;
36185;SDS011;22228;53.222;7.446;2023-03-01T06:06:09;63.67;;;40.23;;
36185;SDS011;22228;53.222;7.446;2023-03-01T06:11:19;57.57;;;38.10;;
36185;SDS011;22228;53.222;7.446;2023-03-01T06:13:40;58.83;;;38.07;;
36185;SDS011;22228;53.222;7.446;2023-03-01T06:16:27;63.73;;;38.47;;
36185;SDS011;22228;53.222;7.446;2023-03-01T06:18:48;61.83;;;39.73;;
36185;SDS011;22228;53.222;7.446;2023-03-01T06:21:09;65.77;;;39.27;;
36185;SDS011;22228;53.222;7.446;2023-03-01T06:23:29;71.90;;;41.10;;
36185;SDS011;22228;53.222;7.446;2023-03-01T06:26:16;61.23;;;39.77;;
36185;SDS011;22228;53.222;7.446;2023-03-01T06:29:04;63.03;;;38.93;;
36185;SDS011;22228;53.222;7.446;2023-03-01T06:31:50;63.63;;;41.07;;
36185;SDS011;22228;53.222;7.446;2023-03-01T06:34:14;63.67;;;39.50;;
36185;SDS011;22228;53.222;7.446;2023-03-01T06:36:35;66.27;;;40.03;;
36185;SDS011;22228;53.222;7.446;2023-03-01T06:38:56;62.03;;;38.50;;
36185;SDS011;22228;53.222;7.446;2023-03-01T06:41:17;57.17;;;38.20;;
36185;SDS011;22228;53.222;7.446;2023-03-01T06:43:38;57.87;;;37.17;;
36185;SDS011;22228;53.222;7.446;2023-03-01T06:46:00;59.20;;;36.87;;
36185;SDS011;22228;53.222;7.446;2023-03-01T06:48:27;56.63;;;35.20;;
36185;SDS011;22228;53.222;7.446;2023-03-01T06:51:16;54.90;;;37.00;;
36185;SDS011;22228;53.222;7.446;2023-03-01T06:53:40;53.43;;;34.97;;
36185;SDS011;22228;53.222;7.446;2023-03-01T06:56:02;53.40;;;34.93;;
36185;SDS011;22228;53.222;7.446;2023-03-01T06:58:23;57.20;;;36.50;;
36185;SDS011;22228;53.222;7.446;2023-03-01T07:00:45;59.17;;;37.97;;
36185;SDS011;22228;53.222;7.446;2023-03-01T07:03:08;50.83;;;32.47;;
36185;SDS011;22228;53.222;7.446;2023-03-01T07:05:29;50.63;;;33.47;;
36185;SDS011;22228;53.222;7.446;2023-03-01T07:07:52;50.27;;;32.20;;
36185;SDS011;22228;53.222;7.446;2023-03-01T07:10:14;46.47;;;32.00;;
36185;SDS011;22228;53.222;7.446;2023-03-01T07:12:35;49.27;;;31.50;;
36185;SDS011;22228;53.222;7.446;2023-03-01T07:14:58;50.40;;;33.03;;
36185;SDS011;22228;53.222;7.446;2023-03-01T07:17:19;49.67;;;31.97;;
36185;SDS011;22228;53.222;7.446;2023-03-01T07:19:41;55.63;;;33.60;;
36185;SDS011;22228;53.222;7.446;2023-03-01T07:22:29;63.93;;;36.37;;
36185;SDS011;22228;53.222;7.446;2023-03-01T07:24:50;66.43;;;36.53;;
36185;SDS011;22228;53.222;7.446;2023-03-01T07:27:12;71.60;;;38.33;;
36185;SDS011;22228;53.222;7.446;2023-03-01T07:29:35;75.77;;;38.40;;
36185;SDS011;22228;53.222;7.446;2023-03-01T07:32:52;71.30;;;39.90;;
36185;SDS011;22228;53.222;7.446;2023-03-01T07:35:15;67.97;;;40.33;;
36185;SDS011;22228;53.222;7.446;2023-03-01T07:37:36;64.97;;;38.43;;
36185;SDS011;22228;53.222;7.446;2023-03-01T07:39:57;62.90;;;37.60;;
36185;SDS011;22228;53.222;7.446;2023-03-01T07:42:17;62.00;;;38.37;;
36185;SDS011;22228;53.222;7.446;2023-03-01T07:44:44;65.03;;;39.10;;
36185;SDS011;22228;53.222;7.446;2023-03-01T07:47:05;67.20;;;38.17;;
36185;SDS011;22228;53.222;7.446;2023-03-01T07:49:27;67.47;;;37.53;;
36185;SDS011;22228;53.222;7.446;2023-03-01T07:51:49;64.17;;;38.57;;
36185;SDS011;22228;53.222;7.446;2023-03-01T07:54:09;67.60;;;39.17;;
36185;SDS011;22228;53.222;7.446;2023-03-01T07:56:30;67.60;;;39.33;;
36185;SDS011;22228;53.222;7.446;2023-03-01T07:58:51;68.37;;;39.77;;
36185;SDS011;22228;53.222;7.446;2023-03-01T08:01:13;66.07;;;37.77;;
36185;SDS011;22228;53.222;7.446;2023-03-01T08:03:35;68.23;;;36.60;;
36185;SDS011;22228;53.222;7.446;2023-03-01T08:05:58;63.63;;;36.40;;
36185;SDS011;22228;53.222;7.446;2023-03-01T08:08:22;60.90;;;36.97;;
36185;SDS011;22228;53.222;7.446;2023-03-01T08:10:43;53.33;;;33.77;;
36185;SDS011;22228;53.222;7.446;2023-03-01T08:13:30;54.50;;;32.33;;
36185;SDS011;22228;53.222;7.446;2023-03-01T08:15:52;52.73;;;33.77;;
36185;SDS011;22228;53.222;7.446;2023-03-01T08:18:15;51.87;;;31.80;;
36185;SDS011;22228;53.222;7.446;2023-03-01T08:20:36;58.37;;;33.80;;
36185;SDS011;22228;53.222;7.446;2023-03-01T08:22:58;56.47;;;34.83;;
36185;SDS011;22228;53.222;7.446;2023-03-01T08:25:45;64.33;;;36.70;;
36185;SDS011;22228;53.222;7.446;2023-03-01T08:28:06;69.27;;;38.97;;
36185;SDS011;22228;53.222;7.446;2023-03-01T08:30:27;65.10;;;38.80;;
36185;SDS011;22228;53.222;7.446;2023-03-01T08:33:13;64.10;;;37.63;;
36185;SDS011;22228;53.222;7.446;2023-03-01T08:35:34;60.00;;;36.73;;
36185;SDS011;22228;53.222;7.446;2023-03-01T08:37:55;56.57;;;36.07;;
36185;SDS011;22228;53.222;7.446;2023-03-01T08:40:16;55.47;;;35.63;;
36185;SDS011;22228;53.222;7.446;2023-03-01T08:42:39;59.03;;;35.80;;
36185;SDS011;22228;53.222;7.446;2023-03-01T08:45:04;62.00;;;37.13;;
36185;SDS011;22228;53.222;7.446;2023-03-01T08:47:25;57.33;;;36.37;;
36185;SDS011;22228;53.222;7.446;2023-03-01T08:50:11;61.93;;;38.33;;
36185;SDS011;22228;53.222;7.446;2023-03-01T08:52:32;68.50;;;40.47;;
36185;SDS011;22228;53.222;7.446;2023-03-01T08:57:41;62.33;;;39.20;;
36185;SDS011;22228;53.222;7.446;2023-03-01T09:00:02;72.13;;;42.73;;
36185;SDS011;22228;53.222;7.446;2023-03-01T09:02:27;69.77;;;42.83;;
36185;SDS011;22228;53.222;7.446;2023-03-01T09:04:48;70.93;;;45.37;;
36185;SDS011;22228;53.222;7.446;2023-03-01T09:07:33;66.87;;;42.73;;
36185;SDS011;22228;53.222;7.446;2023-03-01T09:09:54;72.00;;;46.07;;
36185;SDS011;22228;53.222;7.446;2023-03-01T09:12:41;61.40;;;43.17;;
36185;SDS011;22228;53.222;7.446;2023-03-01T09:17:54;63.97;;;41.30;;
36185;SDS011;22228;53.222;7.446;2023-03-01T09:20:15;68.83;;;43.20;;
36185;SDS011;22228;53.222;7.446;2023-03-01T09:22:37;65.90;;;42.93;;
36185;SDS011;22228;53.222;7.446;2023-03-01T09:25:04;71.27;;;46.00;;
36185;SDS011;22228;53.222;7.446;2023-03-01T09:27:51;69.37;;;44.50;;
36185;SDS011;22228;53.222;7.446;2023-03-01T09:30:16;64.50;;;41.77;;
36185;SDS011;22228;53.222;7.446;2023-03-01T09:32:37;61.40;;;40.80;;
36185;SDS011;22228;53.222;7.446;2023-03-01T09:35:01;75.90;;;47.23;;
36185;SDS011;22228;53.222;7.446;2023-03-01T09:37:26;65.17;;;42.13;;
36185;SDS011;22228;53.222;7.446;2023-03-01T09:39:46;66.60;;;43.70;;
36185;SDS011;22228;53.222;7.446;2023-03-01T09:42:12;73.60;;;47.67;;
36185;SDS011;22228;53.222;7.446;2023-03-01T09:44:44;68.77;;;44.53;;
36185;SDS011;22228;53.222;7.446;2023-03-01T09:47:09;69.10;;;44.53;;
36185;SDS011;22228;53.222;7.446;2023-03-01T09:49:39;67.37;;;45.63;;
36185;SDS011;22228;53.222;7.446;2023-03-01T09:52:03;68.80;;;45.70;;
36185;SDS011;22228;53.222;7.446;2023-03-01T09:54:32;65.23;;;44.57;;
36185;SDS011;22228;53.222;7.446;2023-03-01T09:56:56;70.10;;;45.67;;
36185;SDS011;22228;53.222;7.446;2023-03-01T09:59:26;71.97;;;45.97;;
36185;SDS011;22228;53.222;7.446;2023-03-01T10:01:55;68.10;;;45.93;;
36185;SDS011;22228;53.222;7.446;2023-03-01T10:04:46;66.33;;;45.43;;
36185;SDS011;22228;53.222;7.446;2023-03-01T10:07:15;63.47;;;43.27;;
36185;SDS011;22228;53.222;7.446;2023-03-01T10:09:44;65.47;;;42.73;;
36185;SDS011;22228;53.222;7.446;2023-03-01T10:12:07;57.20;;;41.07;;
36185;SDS011;22228;53.222;7.446;2023-03-01T10:14:33;53.77;;;39.90;;
36185;SDS011;22228;53.222;7.446;2023-03-01T10:40:17;49.73;;;35.60;;
36185;SDS011;22228;53.222;7.446;2023-03-01T10:45:34;44.17;;;32.47;;
36185;SDS011;22228;53.222;7.446;2023-03-01T10:48:03;47.07;;;33.53;;
36185;SDS011;22228;53.222;7.446;2023-03-01T10:50:32;48.10;;;32.53;;
36185;SDS011;22228;53.222;7.446;2023-03-01T10:52:57;42.33;;;32.90;;
36185;SDS011;22228;53.222;7.446;2023-03-01T10:55:24;41.37;;;31.80;;
36185;SDS011;22228;53.222;7.446;2023-03-01T10:57:49;44.47;;;32.20;;
36185;SDS011;22228;53.222;7.446;2023-03-01T11:00:25;38.50;;;30.10;;
36185;SDS011;22228;53.222;7.446;2023-03-01T11:05:31;36.57;;;28.37;;
36185;SDS011;22228;53.222;7.446;2023-03-01T11:07:53;38.70;;;27.27;;
36185;SDS011;22228;53.222;7.446;2023-03-01T11:10:16;33.00;;;25.90;;
36185;SDS011;22228;53.222;7.446;2023-03-01T11:12:39;31.57;;;25.20;;
36185;SDS011;22228;53.222;7.446;2023-03-01T11:15:00;34.07;;;26.73;;
36185;SDS011;22228;53.222;7.446;2023-03-01T11:17:21;33.60;;;24.93;;
36185;SDS011;22228;53.222;7.446;2023-03-01T11:19:48;30.17;;;24.20;;
36185;SDS011;22228;53.222;7.446;2023-03-01T11:22:20;27.63;;;20.43;;
36185;SDS011;22228;53.222;7.446;2023-03-01T11:24:44;27.27;;;19.63;;
36185;SDS011;22228;53.222;7.446;2023-03-01T11:27:10;27.67;;;20.67;;
36185;SDS011;22228;53.222;7.446;2023-03-01T11:29:41;27.80;;;19.57;;
36185;SDS011;22228;53.222;7.446;2023-03-01T11:32:06;25.30;;;20.20;;
36185;SDS011;22228;53.222;7.446;2023-03-01T11:34:34;26.00;;;20.27;;
36185;SDS011;22228;53.222;7.446;2023-03-01T11:36:59;26.50;;;20.50;;
36185;SDS011;22228;53.222;7.446;2023-03-01T11:39:25;25.33;;;19.93;;
36185;SDS011;22228;53.222;7.446;2023-03-01T11:41:52;21.77;;;19.37;;
36185;SDS011;22228;53.222;7.446;2023-03-01T11:44:20;24.67;;;19.30;;
36185;SDS011;22228;53.222;7.446;2023-03-01T11:46:57;25.73;;;19.30;;
36185;SDS011;22228;53.222;7.446;2023-03-01T11:49:37;25.20;;;20.00;;
36185;SDS011;22228;53.222;7.446;2023-03-01T11:52:20;23.40;;;18.27;;
36185;SDS011;22228;53.222;7.446;2023-03-01T11:54:49;23.23;;;19.53;;
36185;SDS011;22228;53.222;7.446;2023-03-01T11:57:18;28.87;;;20.33;;
36185;SDS011;22228;53.222;7.446;2023-03-01T11:59:51;24.60;;;19.37;;
36185;SDS011;22228;53.222;7.446;2023-03-01T12:02:28;24.03;;;19.33;;
36185;SDS011;22228;53.222;7.446;2023-03-01T12:05:18;20.47;;;17.93;;
36185;SDS011;22228;53.222;7.446;2023-03-01T12:07:53;20.63;;;18.10;;
36185;SDS011;22228;53.222;7.446;2023-03-01T12:10:20;21.97;;;18.70;;
36185;SDS011;22228;53.222;7.446;2023-03-01T12:12:47;22.30;;;17.77;;
36185;SDS011;22228;53.222;7.446;2023-03-01T12:15:33;24.07;;;18.97;;
36185;SDS011;22228;53.222;7.446;2023-03-01T12:18:07;25.07;;;22.03;;
36185;SDS011;22228;53.222;7.446;2023-03-01T12:20:51;22.13;;;17.57;;
36185;SDS011;22228;53.222;7.446;2023-03-01T12:23:26;19.60;;;17.47;;
36185;SDS011;22228;53.222;7.446;2023-03-01T12:26:06;19.80;;;17.10;;
36185;SDS011;22228;53.222;7.446;2023-03-01T12:28:38;20.63;;;16.70;;
36185;SDS011;22228;53.222;7.446;2023-03-01T12:34:18;24.60;;;17.80;;
36185;SDS011;22228;53.222;7.446;2023-03-01T12:37:03;22.93;;;17.53;;
36185;SDS011;22228;53.222;7.446;2023-03-01T12:39:42;18.20;;;16.17;;
36185;SDS011;22228;53.222;7.446;2023-03-01T12:42:18;21.17;;;17.17;;
36185;SDS011;22228;53.222;7.446;2023-03-01T12:44:56;20.00;;;17.27;;
36185;SDS011;22228;53.222;7.446;2023-03-01T12:47:30;22.17;;;18.23;;
36185;SDS011;22228;53.222;7.446;2023-03-01T12:50:05;22.83;;;17.57;;
36185;SDS011;22228;53.222;7.446;2023-03-01T12:52:35;22.07;;;18.57;;
36185;SDS011;22228;53.222;7.446;2023-03-01T12:55:00;21.03;;;17.10;;
36185;SDS011;22228;53.222;7.446;2023-03-01T12:57:25;22.30;;;17.97;;
36185;SDS011;22228;53.222;7.446;2023-03-01T13:00:00;20.33;;;17.03;;
36185;SDS011;22228;53.222;7.446;2023-03-01T13:02:35;20.63;;;17.23;;
36185;SDS011;22228;53.222;7.446;2023-03-01T13:05:10;19.97;;;17.20;;
36185;SDS011;22228;53.222;7.446;2023-03-01T13:07:44;22.43;;;18.50;;
36185;SDS011;22228;53.222;7.446;2023-03-01T13:10:18;19.73;;;16.87;;
36185;SDS011;22228;53.222;7.446;2023-03-01T13:12:53;18.43;;;15.77;;
36185;SDS011;22228;53.222;7.446;2023-03-01T13:15:27;20.33;;;17.50;;
36185;SDS011;22228;53.222;7.446;2023-03-01T13:17:49;18.20;;;15.90;;
36185;SDS011;22228;53.222;7.446;2023-03-01T13:20:14;19.37;;;17.30;;
36185;SDS011;22228;53.222;7.446;2023-03-01T13:22:36;22.03;;;16.73;;
36185;SDS011;22228;53.222;7.446;2023-03-01T13:25:01;19.83;;;16.83;;
36185;SDS011;22228;53.222;7.446;2023-03-01T13:27:32;20.87;;;17.87;;
36185;SDS011;22228;53.222;7.446;2023-03-01T13:29:53;20.50;;;17.80;;
36185;SDS011;22228;53.222;7.446;2023-03-01T13:32:18;18.93;;;16.27;;
36185;SDS011;22228;53.222;7.446;2023-03-01T13:34:42;20.50;;;17.23;;
36185;SDS011;22228;53.222;7.446;2023-03-01T13:37:17;22.07;;;17.60;;
36185;SDS011;22228;53.222;7.446;2023-03-01T13:39:53;21.03;;;16.63;;
36185;SDS011;22228;53.222;7.446;2023-03-01T13:42:31;19.50;;;17.17;;
36185;SDS011;22228;53.222;7.446;2023-03-01T13:44:56;20.17;;;16.97;;
36185;SDS011;22228;53.222;7.446;2023-03-01T13:47:17;18.40;;;15.97;;
36185;SDS011;22228;53.222;7.446;2023-03-01T13:49:41;20.43;;;17.67;;
36185;SDS011;22228;53.222;7.446;2023-03-01T13:52:03;18.20;;;16.30;;
36185;SDS011;22228;53.222;7.446;2023-03-01T13:54:28;17.47;;;15.60;;
36185;SDS011;22228;53.222;7.446;2023-03-01T13:56:50;17.83;;;15.87;;
36185;SDS011;22228;53.222;7.446;2023-03-01T13:59:13;17.43;;;15.53;;
36185;SDS011;22228;53.222;7.446;2023-03-01T14:01:35;17.33;;;15.53;;
36185;SDS011;22228;53.222;7.446;2023-03-01T14:03:58;20.27;;;16.53;;
36185;SDS011;22228;53.222;7.446;2023-03-01T14:06:20;17.97;;;16.07;;
36185;SDS011;22228;53.222;7.446;2023-03-01T14:08:42;18.37;;;16.27;;
36185;SDS011;22228;53.222;7.446;2023-03-01T14:11:09;18.00;;;16.10;;
36185;SDS011;22228;53.222;7.446;2023-03-01T14:13:46;16.40;;;14.40;;
36185;SDS011;22228;53.222;7.446;2023-03-01T14:16:19;17.97;;;15.20;;
36185;SDS011;22228;53.222;7.446;2023-03-01T14:18:47;16.83;;;15.00;;
36185;SDS011;22228;53.222;7.446;2023-03-01T14:21:17;17.90;;;14.87;;
36185;SDS011;22228;53.222;7.446;2023-03-01T14:23:38;16.57;;;14.70;;
36185;SDS011;22228;53.222;7.446;2023-03-01T14:26:00;16.93;;;14.53;;
36185;SDS011;22228;53.222;7.446;2023-03-01T14:28:25;15.80;;;14.27;;
36185;SDS011;22228;53.222;7.446;2023-03-01T14:30:47;16.80;;;15.10;;
36185;SDS011;22228;53.222;7.446;2023-03-01T14:33:18;17.00;;;14.90;;
36185;SDS011;22228;53.222;7.446;2023-03-01T14:35:41;17.17;;;15.20;;
36185;SDS011;22228;53.222;7.446;2023-03-01T14:38:02;15.30;;;13.70;;
36185;SDS011;22228;53.222;7.446;2023-03-01T14:40:25;16.23;;;14.67;;
36185;SDS011;22228;53.222;7.446;2023-03-01T14:42:47;18.37;;;15.23;;
36185;SDS011;22228;53.222;7.446;2023-03-01T14:45:10;17.70;;;15.80;;
36185;SDS011;22228;53.222;7.446;2023-03-01T14:47:34;17.00;;;15.23;;
36185;SDS011;22228;53.222;7.446;2023-03-01T14:49:58;16.80;;;15.00;;
36185;SDS011;22228;53.222;7.446;2023-03-01T14:52:21;17.07;;;15.33;;
36185;SDS011;22228;53.222;7.446;2023-03-01T14:54:46;18.10;;;16.07;;
36185;SDS011;22228;53.222;7.446;2023-03-01T14:57:12;17.63;;;15.00;;
36185;SDS011;22228;53.222;7.446;2023-03-01T14:59:35;17.20;;;15.43;;
36185;SDS011;22228;53.222;7.446;2023-03-01T15:01:57;17.17;;;15.47;;
36185;SDS011;22228;53.222;7.446;2023-03-01T15:04:18;17.03;;;15.27;;
36185;SDS011;22228;53.222;7.446;2023-03-01T15:06:40;16.83;;;15.10;;
36185;SDS011;22228;53.222;7.446;2023-03-01T15:09:01;17.70;;;15.97;;
36185;SDS011;22228;53.222;7.446;2023-03-01T15:11:24;17.37;;;15.57;;
36185;SDS011;22228;53.222;7.446;2023-03-01T15:13:48;17.63;;;15.80;;
36185;SDS011;22228;53.222;7.446;2023-03-01T15:16:09;19.27;;;16.27;;
36185;SDS011;22228;53.222;7.446;2023-03-01T15:18:33;17.43;;;15.60;;
36185;SDS011;22228;53.222;7.446;2023-03-01T15:20:54;17.40;;;15.60;;
36185;SDS011;22228;53.222;7.446;2023-03-01T15:23:25;17.57;;;15.77;;
36185;SDS011;22228;53.222;7.446;2023-03-01T15:25:48;17.23;;;15.50;;
36185;SDS011;22228;53.222;7.446;2023-03-01T15:28:17;19.03;;;16.83;;
36185;SDS011;22228;53.222;7.446;2023-03-01T15:30:40;17.93;;;16.13;;
36185;SDS011;22228;53.222;7.446;2023-03-01T15:33:17;21.07;;;19.03;;
36185;SDS011;22228;53.222;7.446;2023-03-01T15:35:51;19.57;;;17.47;;
36185;SDS011;22228;53.222;7.446;2023-03-01T15:40:57;17.70;;;15.60;;
36185;SDS011;22228;53.222;7.446;2023-03-01T15:45:58;20.17;;;17.57;;
36185;SDS011;22228;53.222;7.446;2023-03-01T15:48:18;19.30;;;17.00;;
36185;SDS011;22228;53.222;7.446;2023-03-01T15:50:40;19.10;;;16.87;;
36185;SDS011;22228;53.222;7.446;2023-03-01T15:53:05;21.27;;;17.23;;
36185;SDS011;22228;53.222;7.446;2023-03-01T15:55:28;20.33;;;18.23;;
36185;SDS011;22228;53.222;7.446;2023-03-01T15:57:49;20.83;;;18.63;;
36185;SDS011;22228;53.222;7.446;2023-03-01T16:02:58;20.07;;;16.83;;
36185;SDS011;22228;53.222;7.446;2023-03-01T16:05:20;19.40;;;16.60;;
36185;SDS011;22228;53.222;7.446;2023-03-01T16:07:42;17.33;;;15.50;;
36185;SDS011;22228;53.222;7.446;2023-03-01T16:10:04;17.73;;;15.83;;
36185;SDS011;22228;53.222;7.446;2023-03-01T16:12:25;17.33;;;15.57;;
36185;SDS011;22228;53.222;7.446;2023-03-01T16:14:46;18.87;;;16.87;;
36185;SDS011;22228;53.222;7.446;2023-03-01T16:17:07;18.87;;;16.87;;
36185;SDS011;22228;53.222;7.446;2023-03-01T16:19:28;20.90;;;17.47;;
36185;SDS011;22228;53.222;7.446;2023-03-01T16:21:48;19.23;;;17.17;;
36185;SDS011;22228;53.222;7.446;2023-03-01T16:24:09;20.27;;;18.17;;
36185;SDS011;22228;53.222;7.446;2023-03-01T16:26:31;19.90;;;17.80;;
36185;SDS011;22228;53.222;7.446;2023-03-01T16:28:53;17.30;;;15.60;;
36185;SDS011;22228;53.222;7.446;2023-03-01T16:31:16;20.40;;;18.20;;
36185;SDS011;22228;53.222;7.446;2023-03-01T16:33:40;20.87;;;18.40;;
36185;SDS011;22228;53.222;7.446;2023-03-01T16:36:00;18.57;;;16.63;;
36185;SDS011;22228;53.222;7.446;2023-03-01T16:38:21;17.67;;;15.80;;
36185;SDS011;22228;53.222;7.446;2023-03-01T16:40:43;18.43;;;16.47;;
36185;SDS011;22228;53.222;7.446;2023-03-01T16:43:09;18.47;;;16.57;;
36185;SDS011;22228;53.222;7.446;2023-03-01T16:45:32;19.37;;;17.37;;
36185;SDS011;22228;53.222;7.446;2023-03-01T16:47:54;20.40;;;17.27;;
36185;SDS011;22228;53.222;7.446;2023-03-01T16:50:15;19.37;;;17.17;;
36185;SDS011;22228;53.222;7.446;2023-03-01T16:52:35;19.67;;;17.57;;
36185;SDS011;22228;53.222;7.446;2023-03-01T16:54:56;19.17;;;16.87;;
36185;SDS011;22228;53.222;7.446;2023-03-01T16:57:17;21.07;;;17.37;;
36185;SDS011;22228;53.222;7.446;2023-03-01T16:59:38;22.07;;;18.23;;
36185;SDS011;22228;53.222;7.446;2023-03-01T17:01:59;20.23;;;18.03;;
36185;SDS011;22228;53.222;7.446;2023-03-01T17:04:19;20.37;;;17.77;;
36185;SDS011;22228;53.222;7.446;2023-03-01T17:06:40;21.10;;;18.90;;
36185;SDS011;22228;53.222;7.446;2023-03-01T17:09:00;23.27;;;20.77;;
36185;SDS011;22228;53.222;7.446;2023-03-01T17:11:21;22.73;;;19.60;;
36185;SDS011;22228;53.222;7.446;2023-03-01T17:13:41;20.37;;;17.93;;
36185;SDS011;22228;53.222;7.446;2023-03-01T17:16:04;22.93;;;20.10;;
36185;SDS011;22228;53.222;7.446;2023-03-01T17:18:27;24.97;;;22.10;;
36185;SDS011;22228;53.222;7.446;2023-03-01T17:20:47;24.97;;;21.17;;
36185;SDS011;22228;53.222;7.446;2023-03-01T17:23:07;23.20;;;20.63;;
36185;SDS011;22228;53.222;7.446;2023-03-01T17:25:28;24.40;;;21.53;;
36185;SDS011;22228;53.222;7.446;2023-03-01T17:27:48;26.50;;;22.27;;
36185;SDS011;22228;53.222;7.446;2023-03-01T17:30:09;31.57;;;25.83;;
36185;SDS011;22228;53.222;7.446;2023-03-01T17:32:33;37.57;;;28.83;;
36185;SDS011;22228;53.222;7.446;2023-03-01T17:34:53;26.30;;;22.53;;
36185;SDS011;22228;53.222;7.446;2023-03-01T17:37:14;26.90;;;23.07;;
36185;SDS011;22228;53.222;7.446;2023-03-01T17:39:34;28.87;;;23.80;;
36185;SDS011;22228;53.222;7.446;2023-03-01T17:41:56;28.70;;;22.87;;
36185;SDS011;22228;53.222;7.446;2023-03-01T17:44:16;33.17;;;27.77;;
36185;SDS011;22228;53.222;7.446;2023-03-01T17:46:37;54.23;;;35.87;;
36185;SDS011;22228;53.222;7.446;2023-03-01T17:48:59;92.67;;;58.30;;
36185;SDS011;22228;53.222;7.446;2023-03-01T17:51:20;44.50;;;34.57;;
36185;SDS011;22228;53.222;7.446;2023-03-01T17:53:40;27.87;;;23.60;;
36185;SDS011;22228;53.222;7.446;2023-03-01T17:56:02;28.50;;;24.20;;
36185;SDS011;22228;53.222;7.446;2023-03-01T17:58:24;35.87;;;27.03;;
36185;SDS011;22228;53.222;7.446;2023-03-01T18:00:45;34.90;;;28.13;;
36185;SDS011;22228;53.222;7.446;2023-03-01T18:03:05;30.73;;;24.63;;